»·PEaware :: AAY979 KELP-KSAT

AAY979 :: KELP-KSAT

FLIGHT INFORMATION

Flight Status: Arrived
Operator:
Allegiant Air
More flights by this operator :: More flights under this callsign
Pilot: Anonymous A. (29301)
Aircraft: AIRBUS A320
(A320)
More flights by this aircraft type
Origin: KELP El Paso Intl
United States
Destination: KSAT San Antonio Intl
United States
More flights between these airports :: More routes between these airports
Route: +NEVUE3 FST CSI CSI2
File this flight plan on PilotEdge
Remarks:
Altitude:
(Current/Filed)
37,000ft
Speed:
(Current/Filed)
260kts
Departed: 01-May-20 10:52 AM
Arrived: 01-May-20 12:03 PM
Distance/Time
Traveled:
430nm/1:11
Distance/Time
To Go:
Arrived

Flight Plot

Page will automatically refresh every two minutes.

Flight plan parsing failed; only flown route is shown


Map Options




Map Legend


Flown Route
Filed Route
Departure Airport
Arrival Airport
Navaid (VOR, NDB)
Fix

Horizontal Profiles

Position Reports

Time Latitude Longitude Heading Altitude Ground
Speed
01-May-20 10:33 31.799770 -106.393017 0 3927ft 0kts
01-May-20 10:34 31.799770 -106.393017 0 3927ft 0kts
01-May-20 10:35 31.799770 -106.393017 0 3927ft 0kts
01-May-20 10:36 31.799770 -106.393017 0 3927ft 0kts
01-May-20 10:37 31.799770 -106.393017 0 3927ft 0kts
01-May-20 10:38 31.799770 -106.393017 0 3927ft 0kts
01-May-20 10:39 31.799770 -106.393017 0 3927ft 0kts
01-May-20 10:40 31.799576 -106.393018 0 3927ft 2kts
01-May-20 10:41 31.799272 -106.393295 77 3927ft 0kts
01-May-20 10:42 31.799272 -106.393295 77 3927ft 0kts
01-May-20 10:43 31.799272 -106.393295 77 3927ft 0kts
01-May-20 10:44 31.799272 -106.393295 77 3927ft 0kts
01-May-20 10:45 31.799453 -106.392514 69 3928ft 10kts
01-May-20 10:46 31.799899 -106.388395 89 3932ft 11kts
01-May-20 10:47 31.799913 -106.384865 90 3937ft 14kts
01-May-20 10:48 31.799896 -106.378714 92 3944ft 21kts
01-May-20 10:48 31.799584 -106.372220 93 3953ft 23kts
01-May-20 10:50 31.799157 -106.363635 93 3957ft 22kts
01-May-20 10:51 31.800713 -106.361615 273 3954ft 12kts
01-May-20 10:51 31.802368 -106.393757 275 4579ft 187kts
01-May-20 10:53 31.753387 -106.413189 133 7600ft 265kts
01-May-20 10:53 31.722329 -106.342717 96 9774ft 309kts
01-May-20 10:54 31.691903 -106.244992 117 12684ft 349kts
01-May-20 10:55 31.643950 -106.140974 118 15325ft 377kts
01-May-20 10:56 31.592367 -106.032035 117 18050ft 392kts
01-May-20 10:57 31.531435 -105.922905 122 20521ft 405kts
01-May-20 10:58 31.471728 -105.808009 100 22741ft 411kts
01-May-20 10:59 31.448589 -105.674504 97 24782ft 420kts
01-May-20 11:00 31.425049 -105.538324 97 26645ft 429kts
01-May-20 11:01 31.400752 -105.398936 97 28340ft 437kts
01-May-20 11:02 31.378284 -105.270870 97 29713ft 445kts
01-May-20 11:03 31.353029 -105.127854 97 31118ft 451kts
01-May-20 11:04 31.326789 -104.980269 99 32085ft 465kts
01-May-20 11:05 31.299343 -104.827055 100 33077ft 475kts
01-May-20 11:06 31.271093 -104.670440 100 34195ft 477kts
01-May-20 11:07 31.243310 -104.517484 100 35430ft 474kts
01-May-20 11:08 31.215590 -104.365983 100 36529ft 472kts
01-May-20 11:09 31.187690 -104.214570 100 37243ft 473kts
01-May-20 11:10 31.159718 -104.063804 100 37260ft 472kts
01-May-20 11:11 31.131771 -103.914208 100 37242ft 472kts
01-May-20 11:12 31.103535 -103.764070 100 37241ft 472kts
01-May-20 11:13 31.074736 -103.611979 100 37242ft 472kts
01-May-20 11:14 31.045879 -103.460599 100 37244ft 472kts
01-May-20 11:15 31.016904 -103.309621 101 37227ft 474kts
01-May-20 11:16 30.987695 -103.158468 101 37206ft 478kts
01-May-20 11:17 30.957848 -103.005053 103 37201ft 489kts
01-May-20 11:18 30.919695 -102.849727 108 37252ft 504kts
01-May-20 11:19 30.878813 -102.691480 109 37250ft 509kts
01-May-20 11:20 30.837476 -102.532412 109 37261ft 511kts
01-May-20 11:21 30.796023 -102.373784 109 37269ft 511kts
01-May-20 11:22 30.754246 -102.214800 109 37256ft 509kts
01-May-20 11:23 30.712594 -102.057172 109 37256ft 508kts
01-May-20 11:24 30.670725 -101.899586 109 37262ft 508kts
01-May-20 11:25 30.628420 -101.741209 110 37267ft 508kts
01-May-20 11:26 30.585920 -101.582969 109 37274ft 508kts
01-May-20 11:27 30.542593 -101.422511 110 37281ft 509kts
01-May-20 11:28 30.499047 -101.262107 110 37284ft 507kts
01-May-20 11:29 30.456234 -101.105255 110 37271ft 506kts
01-May-20 11:30 30.412768 -100.946842 110 37285ft 506kts
01-May-20 11:31 30.369849 -100.791223 111 37330ft 503kts
01-May-20 11:32 30.327093 -100.636986 111 36590ft 497kts
01-May-20 11:33 30.284552 -100.484380 111 35644ft 498kts
01-May-20 11:34 30.242661 -100.334800 111 34712ft 499kts
01-May-20 11:35 30.199245 -100.180482 111 33717ft 492kts
01-May-20 11:36 30.155514 -100.025885 111 32737ft 485kts
01-May-20 11:37 30.113586 -99.878388 110 31750ft 478kts
01-May-20 11:38 30.072262 -99.733698 110 30762ft 470kts
01-May-20 11:39 30.031303 -99.590940 109 29537ft 460kts
01-May-20 11:40 29.990911 -99.450831 108 27240ft 457kts
01-May-20 11:41 29.952454 -99.318004 107 25051ft 450kts
01-May-20 11:42 29.911422 -99.184960 112 23185ft 432kts
01-May-20 11:43 29.864831 -99.060090 113 21209ft 416kts
01-May-20 11:44 29.820504 -98.939182 113 19332ft 398kts
01-May-20 11:45 29.782823 -98.822818 118 17519ft 372kts
01-May-20 11:46 29.730766 -98.728018 135 14467ft 340kts
01-May-20 11:47 29.672284 -98.652652 134 12639ft 301kts
01-May-20 11:48 29.616720 -98.580957 134 10994ft 299kts
01-May-20 11:49 29.562466 -98.510954 133 9818ft 285kts
01-May-20 11:50 29.510001 -98.443391 133 8412ft 282kts
01-May-20 11:51 29.457843 -98.376329 132 7010ft 279kts
01-May-20 11:52 29.406080 -98.309878 132 5636ft 276kts
01-May-20 11:53 29.377692 -98.235707 59 4261ft 267kts
01-May-20 11:54 29.433152 -98.228901 308 4106ft 206kts
01-May-20 11:55 29.446861 -98.282607 282 4097ft 144kts
01-May-20 11:56 29.452170 -98.311525 282 4096ft 142kts
01-May-20 11:57 29.456767 -98.336376 282 4088ft 141kts
01-May-20 11:58 29.465315 -98.380920 291 3466ft 147kts
01-May-20 11:59 29.489137 -98.415673 312 2144ft 138kts
01-May-20 12:00 29.514448 -98.449143 312 1263ft 138kts
01-May-20 12:01 29.535481 -98.476183 312 818ft 50kts
01-May-20 12:02 29.534010 -98.476187 132 818ft 16kts
01-May-20 12:03 29.530606 -98.471809 131 818ft 17kts
01-May-20 12:04 29.527270 -98.468758 224 818ft 12kts
01-May-20 12:05 29.524023 -98.472079 222 818ft 15kts
01-May-20 12:06 29.524082 -98.474714 311 818ft 0kts
01-May-20 12:07 29.525723 -98.463566 311 906ft 139kts
01-May-20 12:08 29.527531 -98.465918 311 853ft 138kts
01-May-20 12:09 29.535411 -98.477879 160 818ft 15kts
01-May-20 12:10 29.533398 -98.475407 132 818ft 17kts

Navigation Log

Ident Type
Flight plan parsing failed, navigation log unavailable